KNYL

Yuma MCAS / Yuma International Airport

Yuma, Arizona, USA
METAR KNYL 252157Z 28010KT 7SM CLR 34/01 A2987 RMK AO2 SLP111 T03390011
Observed Flight Rules
May-25 @ 21:57 UTC (39 minutes ago) Visual Flight Rules
Wind Visibility Clouds
280° at 10 knots 7 miles
  • Clear skies
Temperatures Readings
Current 34°C / 93°F
Dewpoint 1°C / 34°F
Humidity 12%
Altimeter 29.87" Hg
Pressure 1011.1 hPa
Elevation 65
METAR KNYL 252157Z 28010KT 7SM CLR 34/01 A2987 RMK AO2 SLP111 T03390011
Observed Flight Rules
May-25 @ 21:57 UTC
(39 minutes ago)
VFR
Wind Visibility
280° at 10 knots 7 miles
Clouds
  • Clear skies
Temperature Dewpoint
34°C / 93°F 1°C / 34°F
Humidity Altimeter Pressure
12% 29.87" Hg 1011.1 hPa